KCVN/CVN METAR and TAF weather

Enter ICAO airport designator
Station Type Date Time Source
KCVN METAR 2020/09/20 00:56 UTC NOAA

KCVN 200056Z AUTO 17010KT 10SM CLR 22/06 A3018 RMK AO2 SLP197 T02220056


Station Type Date Time Source
KCVN Decoded METAR 2020/09/20 00:56 UTC NOAA

Clovis, Clovis Municipal Airport, NM, United States (KCVN) 34-26N 103-05W
Sep 19, 2020 - 08:56 PM EDT / 2020.09.20 0056 UTC
Wind: from the S (170 degrees) at 12 MPH (10 KT):0
Visibility: 10 mile(s):0
Sky conditions: clear
Temperature: 72.0 F (22.2 C)
Dew Point: 42.1 F (5.6 C)
Relative Humidity: 33%
Pressure (altimeter): 30.18 in. Hg (1022 hPa)
ob: KCVN 200056Z AUTO 17010KT 10SM CLR 22/06 A3018 RMK AO2 SLP197 T02220056
cycle: 1

Station Type Date Time Source
KCVN TAF UTC NOAA

Error!

Example: see airport list